createdAt,value
2019-05-19T00:04:23.808Z,6.53
2019-05-19T00:09:27.233Z,6.47
2019-05-19T00:14:30.646Z,5.87
2019-05-19T00:19:34.088Z,7.77
2019-05-19T00:24:37.518Z,7.57
2019-05-19T00:29:40.958Z,8.53
2019-05-19T00:34:44.477Z,7.20
2019-05-19T00:39:47.977Z,9.00
2019-05-19T00:44:51.502Z,10.07
2019-05-19T00:49:54.942Z,8.13
2019-05-19T00:54:58.357Z,9.73
2019-05-19T01:00:02.361Z,8.90
2019-05-19T01:05:07.907Z,9.53
2019-05-19T01:10:12.068Z,9.53
2019-05-19T01:15:16.497Z,9.30
2019-05-19T01:20:20.061Z,8.63
2019-05-19T01:25:23.477Z,9.50
2019-05-19T01:30:26.982Z,9.40
2019-05-19T01:35:30.391Z,8.10
2019-05-19T01:40:33.809Z,9.10
2019-05-19T01:45:38.045Z,7.87
2019-05-19T01:50:41.544Z,10.13
2019-05-19T01:55:44.958Z,9.77
2019-05-19T02:00:48.480Z,9.57
2019-05-19T02:05:51.923Z,9.93
2019-05-19T02:10:55.358Z,8.90
2019-05-19T02:15:58.788Z,9.97
2019-05-19T02:21:02.257Z,9.10
2019-05-19T02:26:05.733Z,8.27
2019-05-19T02:31:09.159Z,10.27
2019-05-19T02:36:12.595Z,11.83
2019-05-19T02:41:18.051Z,8.97
2019-05-19T02:46:22.625Z,8.13
2019-05-19T02:51:28.925Z,9.17
2019-05-19T02:56:33.481Z,9.67
2019-05-19T03:01:38.741Z,9.90
2019-05-19T03:06:42.444Z,9.67
2019-05-19T03:11:45.968Z,8.90
2019-05-19T03:16:49.406Z,9.30
2019-05-19T03:21:52.836Z,8.97
2019-05-19T03:26:56.271Z,10.80
2019-05-19T03:32:11.556Z,9.10
2019-05-19T03:37:12.263Z,10.07
2019-05-19T03:42:15.698Z,10.03
2019-05-19T03:47:19.159Z,11.23
2019-05-19T03:52:22.599Z,10.00
2019-05-19T03:57:26.020Z,10.57
2019-05-19T04:02:29.441Z,9.40
2019-05-19T04:07:32.852Z,9.73
2019-05-19T04:12:36.328Z,9.67
2019-05-19T04:17:39.782Z,13.50
2019-05-19T04:22:43.280Z,11.33
2019-05-19T04:27:47.238Z,11.37
2019-05-19T04:32:50.701Z,10.37
2019-05-19T04:37:54.128Z,12.00
2019-05-19T04:42:57.562Z,10.73
2019-05-19T04:48:00.981Z,10.57
2019-05-19T04:53:04.403Z,10.83
2019-05-19T04:58:07.831Z,12.40
2019-05-19T05:03:11.294Z,12.03
2019-05-19T05:08:28.900Z,13.70
2019-05-19T05:13:19.880Z,13.30
2019-05-19T05:18:23.306Z,12.20
2019-05-19T05:23:26.755Z,14.10
2019-05-19T05:28:30.214Z,13.30
2019-05-19T05:33:33.702Z,15.20
2019-05-19T05:38:37.151Z,15.30
2019-05-19T05:43:40.588Z,15.33
2019-05-19T05:48:44.041Z,13.90
2019-05-19T05:53:47.464Z,14.20
2019-05-19T05:58:50.954Z,14.33
2019-05-19T06:03:54.366Z,12.53
2019-05-19T06:08:57.803Z,13.73
2019-05-19T06:14:01.294Z,14.57
2019-05-19T06:19:04.706Z,15.20
2019-05-19T06:24:08.136Z,13.93
2019-05-19T06:29:11.564Z,14.93
2019-05-19T06:34:14.992Z,14.03
2019-05-19T06:39:18.440Z,14.60
2019-05-19T06:44:21.922Z,14.40
2019-05-19T06:49:25.300Z,14.07
2019-05-19T06:54:28.792Z,15.37
2019-05-19T06:59:32.257Z,13.70
2019-05-19T07:04:35.706Z,14.13
2019-05-19T07:09:39.135Z,16.07
2019-05-19T07:14:42.584Z,14.63
2019-05-19T07:19:46.038Z,16.83
2019-05-19T07:24:49.693Z,16.30
2019-05-19T07:29:53.157Z,17.83
2019-05-19T07:34:56.531Z,16.70
2019-05-19T07:39:59.981Z,13.93
2019-05-19T07:45:04.503Z,15.53
2019-05-19T07:50:08.093Z,14.17
2019-05-19T07:55:11.643Z,15.83
2019-05-19T08:00:16.450Z,13.67
2019-05-19T08:05:19.895Z,16.33
2019-05-19T08:10:23.317Z,14.77
2019-05-19T08:15:26.768Z,14.73
2019-05-19T08:20:30.199Z,14.57
2019-05-19T08:25:33.627Z,14.57
2019-05-19T08:30:37.058Z,12.73
2019-05-19T08:35:40.564Z,13.50
2019-05-19T08:40:44.007Z,15.30
2019-05-19T08:45:47.426Z,15.20
2019-05-19T08:50:50.862Z,14.13
2019-05-19T08:55:54.382Z,13.97
2019-05-19T09:00:57.824Z,14.00
2019-05-19T09:06:01.240Z,12.70
2019-05-19T09:11:04.738Z,13.67
2019-05-19T09:16:08.178Z,13.40
2019-05-19T09:21:11.642Z,10.23
2019-05-19T09:26:15.047Z,8.93
2019-05-19T09:31:18.482Z,8.23
2019-05-19T09:36:21.922Z,7.83
2019-05-19T09:41:25.369Z,8.70
2019-05-19T09:46:28.781Z,7.57
2019-05-19T09:51:32.197Z,10.63
2019-05-19T09:56:35.617Z,7.60
2019-05-19T10:01:39.060Z,7.57
2019-05-19T10:06:42.580Z,7.47
2019-05-19T10:12:03.443Z,6.53
2019-05-19T10:17:06.904Z,7.67
2019-05-19T10:22:10.317Z,7.00
2019-05-19T10:27:13.738Z,6.53
2019-05-19T10:32:17.270Z,7.00
2019-05-19T10:37:20.729Z,6.67
2019-05-19T10:42:24.156Z,6.63
2019-05-19T10:47:27.586Z,7.17
2019-05-19T10:52:31.061Z,6.37
2019-05-19T10:57:34.489Z,5.90
2019-05-19T11:02:37.899Z,5.40
2019-05-19T11:07:41.570Z,7.33
2019-05-19T11:12:46.912Z,6.10
2019-05-19T11:17:50.599Z,6.20
2019-05-19T11:22:54.127Z,4.93
2019-05-19T11:27:58.155Z,6.30
2019-05-19T11:33:01.533Z,6.70
2019-05-19T11:38:04.969Z,5.10
2019-05-19T11:43:08.452Z,5.23
2019-05-19T11:48:11.873Z,4.73
2019-05-19T11:53:15.339Z,5.77
2019-05-19T11:58:18.794Z,4.27
2019-05-19T12:03:22.183Z,4.70
2019-05-19T12:08:25.703Z,5.00
2019-05-19T12:13:29.169Z,6.73
2019-05-19T12:18:32.586Z,5.40
2019-05-19T12:23:36.025Z,5.07
2019-05-19T12:28:39.431Z,4.97
2019-05-19T12:33:51.653Z,4.73
2019-05-19T12:38:48.082Z,4.80
2019-05-19T12:43:51.472Z,5.10
2019-05-19T12:48:54.931Z,3.57
2019-05-19T12:53:58.352Z,4.13
2019-05-19T12:59:01.762Z,5.33
2019-05-19T13:04:05.235Z,14.50
2019-05-19T13:09:09.405Z,5.27
2019-05-19T13:14:12.893Z,5.00
2019-05-19T13:19:16.347Z,5.20
2019-05-19T13:24:19.767Z,6.43
2019-05-19T13:29:23.177Z,4.90
2019-05-19T13:34:26.624Z,5.53
2019-05-19T13:39:30.064Z,5.37
2019-05-19T13:44:33.486Z,4.63
2019-05-19T13:49:36.910Z,5.67
2019-05-19T13:54:40.351Z,6.30
2019-05-19T13:59:43.794Z,5.90
2019-05-19T14:04:47.247Z,5.80
2019-05-19T14:09:50.702Z,7.43
2019-05-19T14:14:54.176Z,5.80
2019-05-19T14:19:57.602Z,4.37
2019-05-19T14:25:01.037Z,4.53
2019-05-19T14:30:06.625Z,4.47
2019-05-19T14:35:10.290Z,4.20
2019-05-19T14:40:14.570Z,5.47
2019-05-19T14:45:18.968Z,4.57
2019-05-19T14:50:22.541Z,4.60
2019-05-19T14:55:25.964Z,7.23
2019-05-19T15:00:29.409Z,4.50
2019-05-19T15:05:32.872Z,4.80
2019-05-19T15:10:36.302Z,6.33
2019-05-19T15:15:39.735Z,5.33
2019-05-19T15:20:42.169Z,4.77
2019-05-19T15:25:45.540Z,9.37
2019-05-19T15:30:48.983Z,5.03
2019-05-19T15:35:52.400Z,3.83
2019-05-19T15:40:55.807Z,4.60
2019-05-19T15:45:59.263Z,6.00
2019-05-19T15:51:02.715Z,8.93
2019-05-19T15:56:06.157Z,6.83
2019-05-19T16:01:09.702Z,7.47
2019-05-19T16:06:13.103Z,4.70
2019-05-19T16:11:16.517Z,4.90
2019-05-19T16:16:19.954Z,4.33
2019-05-19T16:21:23.395Z,4.93
2019-05-19T16:26:26.822Z,4.43
2019-05-19T16:31:30.241Z,5.27
2019-05-19T16:36:33.692Z,4.27
2019-05-19T16:41:37.281Z,4.93
2019-05-19T16:46:40.800Z,4.70
2019-05-19T16:51:44.415Z,5.70
2019-05-19T16:56:47.860Z,4.80
2019-05-19T17:01:51.338Z,4.97
2019-05-19T17:06:54.727Z,4.53
2019-05-19T17:11:58.152Z,4.03
2019-05-19T17:17:01.593Z,4.30
2019-05-19T17:22:06.051Z,5.43
2019-05-19T17:27:09.592Z,4.97
2019-05-19T17:32:13.006Z,5.83
2019-05-19T17:37:16.456Z,5.50
2019-05-19T17:42:19.903Z,4.93
2019-05-19T17:47:23.424Z,3.80
2019-05-19T17:52:27.261Z,4.77
2019-05-19T17:57:32.343Z,4.70
2019-05-19T18:02:35.773Z,7.40
2019-05-19T18:07:39.226Z,5.30
2019-05-19T18:12:42.663Z,4.50
2019-05-19T18:17:46.125Z,4.93
2019-05-19T18:22:49.803Z,4.87
2019-05-19T18:27:54.017Z,4.57
2019-05-19T18:32:57.467Z,4.57
2019-05-19T18:38:00.950Z,4.67
2019-05-19T18:43:04.440Z,6.83
2019-05-19T18:48:07.866Z,5.57
2019-05-19T18:53:11.300Z,4.27
2019-05-19T18:58:14.698Z,5.17
2019-05-19T19:03:18.114Z,4.70
2019-05-19T19:08:22.361Z,5.97
2019-05-19T19:13:25.808Z,4.70
2019-05-19T19:18:29.605Z,5.17
2019-05-19T19:23:33.041Z,5.37
2019-05-19T19:28:36.473Z,5.23
2019-05-19T19:33:39.890Z,5.80
2019-05-19T19:38:43.315Z,5.73
2019-05-19T19:43:47.632Z,6.07
2019-05-19T19:48:51.062Z,6.10
2019-05-19T19:53:54.486Z,6.13
2019-05-19T19:58:57.911Z,5.70
2019-05-19T20:04:01.345Z,7.33
2019-05-19T20:09:06.364Z,7.47
2019-05-19T20:14:09.808Z,6.63
2019-05-19T20:19:13.223Z,8.00
2019-05-19T20:24:16.730Z,6.90
2019-05-19T20:29:20.183Z,5.87
2019-05-19T20:34:23.599Z,7.07
2019-05-19T20:39:27.058Z,6.83
2019-05-19T20:44:30.500Z,7.43
2019-05-19T20:49:33.931Z,6.67
2019-05-19T20:54:37.379Z,5.93
2019-05-19T20:59:42.402Z,6.73
2019-05-19T21:04:45.910Z,6.70
2019-05-19T21:09:49.364Z,8.00
2019-05-19T21:14:52.875Z,6.80
2019-05-19T21:19:56.311Z,6.37
2019-05-19T21:24:59.769Z,7.53
2019-05-19T21:30:03.428Z,6.00
2019-05-19T21:35:07.239Z,8.77
2019-05-19T21:40:10.691Z,6.13
2019-05-19T21:45:16.554Z,7.73
2019-05-19T21:50:19.992Z,7.20
2019-05-19T21:55:23.686Z,6.33
2019-05-19T22:00:29.291Z,6.30
2019-05-19T22:05:32.727Z,5.77
2019-05-19T22:10:36.161Z,6.47
2019-05-19T22:15:39.759Z,6.07
2019-05-19T22:20:43.220Z,6.60
2019-05-19T22:25:46.646Z,7.13
2019-05-19T22:30:50.064Z,7.10
2019-05-19T22:35:53.483Z,7.47
2019-05-19T22:40:56.916Z,6.17
2019-05-19T22:46:00.352Z,7.53
2019-05-19T22:51:03.761Z,8.80
2019-05-19T22:56:07.214Z,8.43
2019-05-19T23:01:10.766Z,7.00
2019-05-19T23:06:14.208Z,8.37
2019-05-19T23:11:17.634Z,9.37
2019-05-19T23:16:21.132Z,7.97
2019-05-19T23:21:24.561Z,8.30
2019-05-19T23:26:27.983Z,7.33
2019-05-19T23:31:31.414Z,7.97
2019-05-19T23:36:34.833Z,8.37
2019-05-19T23:41:38.247Z,8.43
2019-05-19T23:46:41.679Z,9.37
2019-05-19T23:51:45.096Z,7.20
2019-05-19T23:56:48.531Z,9.27
